sensor_id;sensor_type;location;lat;lon;timestamp;temperature;humidity
20291;DHT22;10304;51.074;13.754;2023-08-06T00:00:54;20.60;1.00
20291;DHT22;10304;51.074;13.754;2023-08-06T00:03:21;20.60;1.00
20291;DHT22;10304;51.074;13.754;2023-08-06T00:05:48;20.60;99.90
20291;DHT22;10304;51.074;13.754;2023-08-06T00:08:15;20.60;99.90
20291;DHT22;10304;51.074;13.754;2023-08-06T00:10:42;20.70;99.90
20291;DHT22;10304;51.074;13.754;2023-08-06T00:13:08;20.70;99.90
20291;DHT22;10304;51.074;13.754;2023-08-06T00:15:35;20.70;99.90
20291;DHT22;10304;51.074;13.754;2023-08-06T00:18:02;20.70;50.40
20291;DHT22;10304;51.074;13.754;2023-08-06T00:20:29;20.70;78.30
20291;DHT22;10304;51.074;13.754;2023-08-06T00:22:56;20.60;99.50
20291;DHT22;10304;51.074;13.754;2023-08-06T00:25:22;20.70;99.90
20291;DHT22;10304;51.074;13.754;2023-08-06T00:27:49;20.70;99.90
20291;DHT22;10304;51.074;13.754;2023-08-06T00:30:16;20.60;99.90
20291;DHT22;10304;51.074;13.754;2023-08-06T00:32:44;20.60;99.90
20291;DHT22;10304;51.074;13.754;2023-08-06T00:35:11;20.60;1.00
20291;DHT22;10304;51.074;13.754;2023-08-06T00:37:40;20.50;1.00
20291;DHT22;10304;51.074;13.754;2023-08-06T00:40:07;20.50;99.90
20291;DHT22;10304;51.074;13.754;2023-08-06T00:42:35;20.50;99.90
20291;DHT22;10304;51.074;13.754;2023-08-06T00:45:02;20.40;1.00
20291;DHT22;10304;51.074;13.754;2023-08-06T00:47:29;20.30;1.00
20291;DHT22;10304;51.074;13.754;2023-08-06T00:49:57;20.30;1.00
20291;DHT22;10304;51.074;13.754;2023-08-06T00:52:23;20.30;99.90
20291;DHT22;10304;51.074;13.754;2023-08-06T00:54:50;20.40;99.90
20291;DHT22;10304;51.074;13.754;2023-08-06T00:57:17;20.40;99.90
20291;DHT22;10304;51.074;13.754;2023-08-06T00:59:45;20.30;1.00
20291;DHT22;10304;51.074;13.754;2023-08-06T01:02:12;20.30;1.00
20291;DHT22;10304;51.074;13.754;2023-08-06T01:04:39;20.30;1.00
20291;DHT22;10304;51.074;13.754;2023-08-06T01:12:34;20.40;1.00
20291;DHT22;10304;51.074;13.754;2023-08-06T01:15:24;20.40;1.00
20291;DHT22;10304;51.074;13.754;2023-08-06T01:17:52;20.40;1.00
20291;DHT22;10304;51.074;13.754;2023-08-06T01:20:19;20.30;1.00
20291;DHT22;10304;51.074;13.754;2023-08-06T01:22:46;20.30;1.00
20291;DHT22;10304;51.074;13.754;2023-08-06T01:25:15;20.30;1.00
20291;DHT22;10304;51.074;13.754;2023-08-06T01:27:49;20.30;1.00
20291;DHT22;10304;51.074;13.754;2023-08-06T01:30:18;20.30;1.00
20291;DHT22;10304;51.074;13.754;2023-08-06T01:32:49;20.30;1.00
20291;DHT22;10304;51.074;13.754;2023-08-06T01:35:19;20.40;1.00
20291;DHT22;10304;51.074;13.754;2023-08-06T01:37:46;20.40;1.00
20291;DHT22;10304;51.074;13.754;2023-08-06T01:40:13;20.40;99.90
20291;DHT22;10304;51.074;13.754;2023-08-06T01:42:40;20.40;99.90
20291;DHT22;10304;51.074;13.754;2023-08-06T01:45:08;20.40;99.90
20291;DHT22;10304;51.074;13.754;2023-08-06T01:47:35;20.40;1.00
20291;DHT22;10304;51.074;13.754;2023-08-06T01:50:02;20.30;1.00
20291;DHT22;10304;51.074;13.754;2023-08-06T01:52:29;20.20;1.00
20291;DHT22;10304;51.074;13.754;2023-08-06T01:54:56;20.20;1.00
20291;DHT22;10304;51.074;13.754;2023-08-06T01:57:23;20.20;99.90
20291;DHT22;10304;51.074;13.754;2023-08-06T01:59:50;20.10;99.90
20291;DHT22;10304;51.074;13.754;2023-08-06T02:02:16;20.20;1.00
20291;DHT22;10304;51.074;13.754;2023-08-06T02:04:43;20.20;1.00
20291;DHT22;10304;51.074;13.754;2023-08-06T02:07:10;20.20;1.00
20291;DHT22;10304;51.074;13.754;2023-08-06T02:09:37;20.30;1.00
20291;DHT22;10304;51.074;13.754;2023-08-06T02:12:04;20.30;1.00
20291;DHT22;10304;51.074;13.754;2023-08-06T02:14:31;20.30;1.00
20291;DHT22;10304;51.074;13.754;2023-08-06T02:16:57;20.30;1.00
20291;DHT22;10304;51.074;13.754;2023-08-06T02:19:24;20.30;1.00
20291;DHT22;10304;51.074;13.754;2023-08-06T02:21:51;20.30;1.00
20291;DHT22;10304;51.074;13.754;2023-08-06T02:24:18;20.30;1.00
20291;DHT22;10304;51.074;13.754;2023-08-06T02:26:45;20.40;1.00
20291;DHT22;10304;51.074;13.754;2023-08-06T02:29:11;20.40;1.00
20291;DHT22;10304;51.074;13.754;2023-08-06T02:31:38;20.40;1.00
20291;DHT22;10304;51.074;13.754;2023-08-06T02:34:05;20.40;1.00
20291;DHT22;10304;51.074;13.754;2023-08-06T02:36:32;20.40;1.00
20291;DHT22;10304;51.074;13.754;2023-08-06T02:38:58;20.40;1.00
20291;DHT22;10304;51.074;13.754;2023-08-06T02:41:25;20.40;1.00
20291;DHT22;10304;51.074;13.754;2023-08-06T02:43:52;20.40;1.00
20291;DHT22;10304;51.074;13.754;2023-08-06T02:46:19;20.30;1.00
20291;DHT22;10304;51.074;13.754;2023-08-06T02:48:46;20.30;1.00
20291;DHT22;10304;51.074;13.754;2023-08-06T02:51:12;20.30;1.00
20291;DHT22;10304;51.074;13.754;2023-08-06T02:53:39;20.30;70.60
20291;DHT22;10304;51.074;13.754;2023-08-06T02:56:06;20.20;99.90
20291;DHT22;10304;51.074;13.754;2023-08-06T02:58:33;20.20;99.90
20291;DHT22;10304;51.074;13.754;2023-08-06T03:01:05;20.20;99.90
20291;DHT22;10304;51.074;13.754;2023-08-06T03:03:32;20.20;99.90
20291;DHT22;10304;51.074;13.754;2023-08-06T03:06:00;20.20;99.90
20291;DHT22;10304;51.074;13.754;2023-08-06T03:08:26;20.20;99.90
20291;DHT22;10304;51.074;13.754;2023-08-06T03:10:53;20.20;99.90
20291;DHT22;10304;51.074;13.754;2023-08-06T03:13:20;20.20;99.90
20291;DHT22;10304;51.074;13.754;2023-08-06T03:15:57;20.20;99.90
20291;DHT22;10304;51.074;13.754;2023-08-06T03:18:24;20.20;1.00
20291;DHT22;10304;51.074;13.754;2023-08-06T03:20:53;20.20;87.50
20291;DHT22;10304;51.074;13.754;2023-08-06T03:23:20;20.20;99.90
20291;DHT22;10304;51.074;13.754;2023-08-06T03:25:47;20.10;1.00
20291;DHT22;10304;51.074;13.754;2023-08-06T03:28:13;20.20;1.00
20291;DHT22;10304;51.074;13.754;2023-08-06T03:30:40;20.20;1.00
20291;DHT22;10304;51.074;13.754;2023-08-06T03:33:07;20.20;1.00
20291;DHT22;10304;51.074;13.754;2023-08-06T03:35:34;20.20;1.00
20291;DHT22;10304;51.074;13.754;2023-08-06T03:38:01;20.30;1.00
20291;DHT22;10304;51.074;13.754;2023-08-06T03:40:28;20.30;99.90
20291;DHT22;10304;51.074;13.754;2023-08-06T03:42:54;20.30;99.90
20291;DHT22;10304;51.074;13.754;2023-08-06T03:45:21;20.20;1.00
20291;DHT22;10304;51.074;13.754;2023-08-06T03:47:48;20.20;99.90
20291;DHT22;10304;51.074;13.754;2023-08-06T03:50:15;20.20;99.90
20291;DHT22;10304;51.074;13.754;2023-08-06T03:52:42;20.20;99.90
20291;DHT22;10304;51.074;13.754;2023-08-06T03:55:09;20.30;1.00
20291;DHT22;10304;51.074;13.754;2023-08-06T03:57:35;20.30;99.90
20291;DHT22;10304;51.074;13.754;2023-08-06T04:00:03;20.30;99.90
20291;DHT22;10304;51.074;13.754;2023-08-06T04:02:30;20.30;99.90
20291;DHT22;10304;51.074;13.754;2023-08-06T04:04:57;20.40;99.90
20291;DHT22;10304;51.074;13.754;2023-08-06T04:07:25;20.40;1.00
20291;DHT22;10304;51.074;13.754;2023-08-06T04:09:57;20.40;1.00
20291;DHT22;10304;51.074;13.754;2023-08-06T04:12:25;20.40;1.00
20291;DHT22;10304;51.074;13.754;2023-08-06T04:14:52;20.40;1.00
20291;DHT22;10304;51.074;13.754;2023-08-06T04:17:20;20.40;1.00
20291;DHT22;10304;51.074;13.754;2023-08-06T04:19:51;20.40;1.00
20291;DHT22;10304;51.074;13.754;2023-08-06T04:22:19;20.40;1.00
20291;DHT22;10304;51.074;13.754;2023-08-06T04:24:46;20.40;99.90
20291;DHT22;10304;51.074;13.754;2023-08-06T04:27:14;20.40;1.00
20291;DHT22;10304;51.074;13.754;2023-08-06T04:29:41;20.30;1.00
20291;DHT22;10304;51.074;13.754;2023-08-06T04:32:09;20.40;99.90
20291;DHT22;10304;51.074;13.754;2023-08-06T04:34:37;20.30;1.00
20291;DHT22;10304;51.074;13.754;2023-08-06T04:37:04;20.40;1.00
20291;DHT22;10304;51.074;13.754;2023-08-06T04:39:31;20.40;1.00
20291;DHT22;10304;51.074;13.754;2023-08-06T04:41:58;20.30;1.00
20291;DHT22;10304;51.074;13.754;2023-08-06T04:44:25;20.40;99.90
20291;DHT22;10304;51.074;13.754;2023-08-06T04:46:51;20.30;99.90
20291;DHT22;10304;51.074;13.754;2023-08-06T04:49:21;20.30;99.90
20291;DHT22;10304;51.074;13.754;2023-08-06T04:51:48;20.30;1.00
20291;DHT22;10304;51.074;13.754;2023-08-06T04:54:15;20.40;1.00
20291;DHT22;10304;51.074;13.754;2023-08-06T04:56:41;20.30;11.60
20291;DHT22;10304;51.074;13.754;2023-08-06T04:59:08;20.30;1.00
20291;DHT22;10304;51.074;13.754;2023-08-06T05:01:35;20.20;1.00
20291;DHT22;10304;51.074;13.754;2023-08-06T05:04:02;20.30;99.90
20291;DHT22;10304;51.074;13.754;2023-08-06T05:06:29;20.30;99.90
20291;DHT22;10304;51.074;13.754;2023-08-06T05:08:55;20.30;99.90
20291;DHT22;10304;51.074;13.754;2023-08-06T05:11:22;20.30;99.90
20291;DHT22;10304;51.074;13.754;2023-08-06T05:13:50;20.40;1.00
20291;DHT22;10304;51.074;13.754;2023-08-06T05:16:17;20.40;1.00
20291;DHT22;10304;51.074;13.754;2023-08-06T05:18:44;20.40;1.00
20291;DHT22;10304;51.074;13.754;2023-08-06T05:21:10;20.40;99.90
20291;DHT22;10304;51.074;13.754;2023-08-06T05:23:37;20.40;1.00
20291;DHT22;10304;51.074;13.754;2023-08-06T05:26:04;20.40;1.00
20291;DHT22;10304;51.074;13.754;2023-08-06T05:28:31;20.40;1.00
20291;DHT22;10304;51.074;13.754;2023-08-06T05:30:57;20.40;1.00
20291;DHT22;10304;51.074;13.754;2023-08-06T05:33:24;20.40;1.00
20291;DHT22;10304;51.074;13.754;2023-08-06T05:35:51;20.40;1.00
20291;DHT22;10304;51.074;13.754;2023-08-06T05:38:17;20.40;1.00
20291;DHT22;10304;51.074;13.754;2023-08-06T05:40:44;20.40;1.00
20291;DHT22;10304;51.074;13.754;2023-08-06T05:43:11;20.40;1.00
20291;DHT22;10304;51.074;13.754;2023-08-06T05:45:38;20.50;1.00
20291;DHT22;10304;51.074;13.754;2023-08-06T05:48:05;20.50;1.00
20291;DHT22;10304;51.074;13.754;2023-08-06T05:50:32;20.50;1.00
20291;DHT22;10304;51.074;13.754;2023-08-06T05:52:58;20.50;1.00
20291;DHT22;10304;51.074;13.754;2023-08-06T05:55:27;20.60;1.00
20291;DHT22;10304;51.074;13.754;2023-08-06T05:57:54;20.60;1.00
20291;DHT22;10304;51.074;13.754;2023-08-06T06:00:21;20.60;1.00
20291;DHT22;10304;51.074;13.754;2023-08-06T06:02:48;20.60;1.00
20291;DHT22;10304;51.074;13.754;2023-08-06T06:05:15;20.60;1.00
20291;DHT22;10304;51.074;13.754;2023-08-06T06:07:42;20.70;1.00
20291;DHT22;10304;51.074;13.754;2023-08-06T06:10:09;20.60;1.00
20291;DHT22;10304;51.074;13.754;2023-08-06T06:12:38;20.70;1.00
20291;DHT22;10304;51.074;13.754;2023-08-06T06:15:06;20.70;1.00
20291;DHT22;10304;51.074;13.754;2023-08-06T06:17:33;20.70;1.00
20291;DHT22;10304;51.074;13.754;2023-08-06T06:20:00;20.70;1.00
20291;DHT22;10304;51.074;13.754;2023-08-06T06:22:29;20.80;1.00
20291;DHT22;10304;51.074;13.754;2023-08-06T06:24:56;20.80;1.00
20291;DHT22;10304;51.074;13.754;2023-08-06T06:27:23;20.80;1.00
20291;DHT22;10304;51.074;13.754;2023-08-06T06:29:50;20.80;99.90
20291;DHT22;10304;51.074;13.754;2023-08-06T06:32:17;20.90;99.90
20291;DHT22;10304;51.074;13.754;2023-08-06T06:34:44;20.90;99.90
20291;DHT22;10304;51.074;13.754;2023-08-06T06:37:10;20.90;99.90
20291;DHT22;10304;51.074;13.754;2023-08-06T06:39:38;21.00;21.40
20291;DHT22;10304;51.074;13.754;2023-08-06T06:42:05;21.00;1.00
20291;DHT22;10304;51.074;13.754;2023-08-06T06:44:32;21.00;1.00
20291;DHT22;10304;51.074;13.754;2023-08-06T06:46:59;21.00;99.90
20291;DHT22;10304;51.074;13.754;2023-08-06T06:49:26;21.10;99.90
20291;DHT22;10304;51.074;13.754;2023-08-06T06:51:53;21.10;99.90
20291;DHT22;10304;51.074;13.754;2023-08-06T06:54:20;21.00;1.70
20291;DHT22;10304;51.074;13.754;2023-08-06T06:56:47;21.10;99.90
20291;DHT22;10304;51.074;13.754;2023-08-06T06:59:14;21.10;3.00
20291;DHT22;10304;51.074;13.754;2023-08-06T07:01:41;21.10;17.10
20291;DHT22;10304;51.074;13.754;2023-08-06T07:04:08;21.20;1.00
20291;DHT22;10304;51.074;13.754;2023-08-06T07:06:35;21.20;1.00
20291;DHT22;10304;51.074;13.754;2023-08-06T07:09:02;21.20;1.00
20291;DHT22;10304;51.074;13.754;2023-08-06T07:11:29;21.30;1.00
20291;DHT22;10304;51.074;13.754;2023-08-06T07:13:57;21.30;1.00
20291;DHT22;10304;51.074;13.754;2023-08-06T07:16:25;21.30;1.00
20291;DHT22;10304;51.074;13.754;2023-08-06T07:18:53;21.30;1.00
20291;DHT22;10304;51.074;13.754;2023-08-06T07:21:21;21.40;1.00
20291;DHT22;10304;51.074;13.754;2023-08-06T07:24:00;21.40;99.90
20291;DHT22;10304;51.074;13.754;2023-08-06T07:26:26;21.40;99.90
20291;DHT22;10304;51.074;13.754;2023-08-06T07:28:53;21.40;99.90
20291;DHT22;10304;51.074;13.754;2023-08-06T07:31:21;21.40;99.90
20291;DHT22;10304;51.074;13.754;2023-08-06T07:34:04;21.40;1.00
20291;DHT22;10304;51.074;13.754;2023-08-06T07:36:31;21.40;1.00
20291;DHT22;10304;51.074;13.754;2023-08-06T07:39:00;21.30;37.00
20291;DHT22;10304;51.074;13.754;2023-08-06T07:41:31;21.30;99.90
20291;DHT22;10304;51.074;13.754;2023-08-06T07:44:20;21.30;1.00
20291;DHT22;10304;51.074;13.754;2023-08-06T07:47:10;21.30;41.10
20291;DHT22;10304;51.074;13.754;2023-08-06T07:50:07;21.20;99.90
20291;DHT22;10304;51.074;13.754;2023-08-06T07:52:38;21.10;99.90
20291;DHT22;10304;51.074;13.754;2023-08-06T07:55:20;21.10;99.90
20291;DHT22;10304;51.074;13.754;2023-08-06T07:58:00;20.90;99.90
20291;DHT22;10304;51.074;13.754;2023-08-06T08:00:30;20.80;99.90
20291;DHT22;10304;51.074;13.754;2023-08-06T08:02:58;20.80;99.90
20291;DHT22;10304;51.074;13.754;2023-08-06T08:05:26;20.70;1.00
20291;DHT22;10304;51.074;13.754;2023-08-06T08:08:07;20.60;1.00
20291;DHT22;10304;51.074;13.754;2023-08-06T08:10:48;20.60;1.00
20291;DHT22;10304;51.074;13.754;2023-08-06T08:13:29;20.40;1.00
20291;DHT22;10304;51.074;13.754;2023-08-06T08:16:10;20.40;99.90
20291;DHT22;10304;51.074;13.754;2023-08-06T08:18:40;20.30;1.00
20291;DHT22;10304;51.074;13.754;2023-08-06T08:21:23;20.40;39.40
20291;DHT22;10304;51.074;13.754;2023-08-06T08:23:51;20.30;1.00
20291;DHT22;10304;51.074;13.754;2023-08-06T08:26:19;20.40;1.00
20291;DHT22;10304;51.074;13.754;2023-08-06T08:28:47;20.40;99.50
20291;DHT22;10304;51.074;13.754;2023-08-06T08:31:28;20.40;1.00
20291;DHT22;10304;51.074;13.754;2023-08-06T08:34:15;20.40;1.00
20291;DHT22;10304;51.074;13.754;2023-08-06T08:36:53;20.40;1.00
20291;DHT22;10304;51.074;13.754;2023-08-06T08:39:21;20.40;1.00
20291;DHT22;10304;51.074;13.754;2023-08-06T08:41:53;20.40;99.90
20291;DHT22;10304;51.074;13.754;2023-08-06T08:44:21;20.30;99.90
20291;DHT22;10304;51.074;13.754;2023-08-06T08:46:48;20.20;1.00
20291;DHT22;10304;51.074;13.754;2023-08-06T08:49:30;20.20;1.00
20291;DHT22;10304;51.074;13.754;2023-08-06T08:52:15;20.20;99.90
20291;DHT22;10304;51.074;13.754;2023-08-06T08:55:02;20.20;1.00
20291;DHT22;10304;51.074;13.754;2023-08-06T08:58:16;20.20;1.00
20291;DHT22;10304;51.074;13.754;2023-08-06T09:01:00;20.20;1.00
20291;DHT22;10304;51.074;13.754;2023-08-06T09:04:20;20.20;1.00
20291;DHT22;10304;51.074;13.754;2023-08-06T09:07:27;20.20;89.80
20291;DHT22;10304;51.074;13.754;2023-08-06T09:10:28;20.20;1.00
20291;DHT22;10304;51.074;13.754;2023-08-06T09:12:59;20.30;1.00
20291;DHT22;10304;51.074;13.754;2023-08-06T09:15:44;20.30;99.90
20291;DHT22;10304;51.074;13.754;2023-08-06T09:22:36;20.20;1.00
20291;DHT22;10304;51.074;13.754;2023-08-06T09:25:23;20.30;1.00
20291;DHT22;10304;51.074;13.754;2023-08-06T09:28:09;20.30;1.00
20291;DHT22;10304;51.074;13.754;2023-08-06T09:30:55;20.30;99.90
20291;DHT22;10304;51.074;13.754;2023-08-06T09:33:43;20.20;1.00
20291;DHT22;10304;51.074;13.754;2023-08-06T09:36:31;20.20;99.90
20291;DHT22;10304;51.074;13.754;2023-08-06T09:38:58;20.20;99.90
20291;DHT22;10304;51.074;13.754;2023-08-06T09:41:28;20.10;1.00
20291;DHT22;10304;51.074;13.754;2023-08-06T09:43:55;20.10;99.90
20291;DHT22;10304;51.074;13.754;2023-08-06T09:46:22;20.10;1.00
20291;DHT22;10304;51.074;13.754;2023-08-06T09:48:50;20.10;24.50
20291;DHT22;10304;51.074;13.754;2023-08-06T09:51:18;20.20;39.10
20291;DHT22;10304;51.074;13.754;2023-08-06T09:53:47;20.20;99.90
20291;DHT22;10304;51.074;13.754;2023-08-06T09:56:15;20.30;99.90
20291;DHT22;10304;51.074;13.754;2023-08-06T09:58:47;20.40;1.00
20291;DHT22;10304;51.074;13.754;2023-08-06T10:01:16;20.40;1.00
20291;DHT22;10304;51.074;13.754;2023-08-06T10:03:44;20.50;1.00
20291;DHT22;10304;51.074;13.754;2023-08-06T10:06:12;20.50;1.00
20291;DHT22;10304;51.074;13.754;2023-08-06T10:08:39;20.60;1.00
20291;DHT22;10304;51.074;13.754;2023-08-06T10:11:08;20.70;1.00
20291;DHT22;10304;51.074;13.754;2023-08-06T10:13:37;20.70;1.00
20291;DHT22;10304;51.074;13.754;2023-08-06T10:16:05;20.80;99.90
20291;DHT22;10304;51.074;13.754;2023-08-06T10:18:33;20.80;1.00
20291;DHT22;10304;51.074;13.754;2023-08-06T10:21:02;20.80;1.00
20291;DHT22;10304;51.074;13.754;2023-08-06T10:23:43;20.80;99.90
20291;DHT22;10304;51.074;13.754;2023-08-06T10:26:10;20.90;1.00
20291;DHT22;10304;51.074;13.754;2023-08-06T10:28:38;21.00;1.00
20291;DHT22;10304;51.074;13.754;2023-08-06T10:31:06;21.10;1.00
20291;DHT22;10304;51.074;13.754;2023-08-06T10:33:46;21.10;99.90
20291;DHT22;10304;51.074;13.754;2023-08-06T10:39:59;21.00;43.40
20291;DHT22;10304;51.074;13.754;2023-08-06T10:42:40;21.10;99.90
20291;DHT22;10304;51.074;13.754;2023-08-06T10:47:54;21.20;99.90
20291;DHT22;10304;51.074;13.754;2023-08-06T10:51:24;21.20;99.90
20291;DHT22;10304;51.074;13.754;2023-08-06T10:54:04;21.40;1.00
20291;DHT22;10304;51.074;13.754;2023-08-06T10:56:40;21.50;99.90
20291;DHT22;10304;51.074;13.754;2023-08-06T10:59:15;21.60;99.90
20291;DHT22;10304;51.074;13.754;2023-08-06T11:01:56;21.70;99.90
20291;DHT22;10304;51.074;13.754;2023-08-06T11:04:44;21.70;1.00
20291;DHT22;10304;51.074;13.754;2023-08-06T11:07:23;21.80;1.00
20291;DHT22;10304;51.074;13.754;2023-08-06T11:10:22;21.90;1.00
20291;DHT22;10304;51.074;13.754;2023-08-06T11:12:49;22.00;99.90
20291;DHT22;10304;51.074;13.754;2023-08-06T11:15:16;22.10;99.90
20291;DHT22;10304;51.074;13.754;2023-08-06T11:17:43;22.10;1.00
20291;DHT22;10304;51.074;13.754;2023-08-06T11:24:26;22.20;99.90
20291;DHT22;10304;51.074;13.754;2023-08-06T11:27:32;22.20;1.00
20291;DHT22;10304;51.074;13.754;2023-08-06T11:34:31;22.40;1.00
20291;DHT22;10304;51.074;13.754;2023-08-06T11:37:43;22.30;1.00
20291;DHT22;10304;51.074;13.754;2023-08-06T11:41:09;22.30;1.00
20291;DHT22;10304;51.074;13.754;2023-08-06T11:43:53;22.30;1.00
20291;DHT22;10304;51.074;13.754;2023-08-06T11:46:21;22.40;1.00
20291;DHT22;10304;51.074;13.754;2023-08-06T11:48:55;22.40;1.00
20291;DHT22;10304;51.074;13.754;2023-08-06T11:51:23;22.40;99.90
20291;DHT22;10304;51.074;13.754;2023-08-06T11:53:59;22.40;99.90
20291;DHT22;10304;51.074;13.754;2023-08-06T11:56:27;22.40;99.90
20291;DHT22;10304;51.074;13.754;2023-08-06T11:58:55;22.40;1.00
20291;DHT22;10304;51.074;13.754;2023-08-06T12:01:22;22.40;99.90
20291;DHT22;10304;51.074;13.754;2023-08-06T12:03:48;22.40;99.90
20291;DHT22;10304;51.074;13.754;2023-08-06T12:06:18;22.50;99.90
20291;DHT22;10304;51.074;13.754;2023-08-06T12:08:46;22.50;99.90
20291;DHT22;10304;51.074;13.754;2023-08-06T12:11:13;22.50;99.90
20291;DHT22;10304;51.074;13.754;2023-08-06T12:13:40;22.60;99.90
20291;DHT22;10304;51.074;13.754;2023-08-06T12:16:08;22.60;99.90
20291;DHT22;10304;51.074;13.754;2023-08-06T12:18:35;22.70;99.90
20291;DHT22;10304;51.074;13.754;2023-08-06T12:21:02;22.80;99.90
20291;DHT22;10304;51.074;13.754;2023-08-06T12:23:29;22.80;99.90
20291;DHT22;10304;51.074;13.754;2023-08-06T12:25:56;22.90;99.90
20291;DHT22;10304;51.074;13.754;2023-08-06T12:28:23;22.90;99.90
20291;DHT22;10304;51.074;13.754;2023-08-06T12:30:53;22.90;99.90
20291;DHT22;10304;51.074;13.754;2023-08-06T12:45:17;23.00;99.90
20291;DHT22;10304;51.074;13.754;2023-08-06T12:47:48;23.10;1.00
20291;DHT22;10304;51.074;13.754;2023-08-06T12:50:16;23.10;1.00
20291;DHT22;10304;51.074;13.754;2023-08-06T12:52:44;23.10;1.00
20291;DHT22;10304;51.074;13.754;2023-08-06T12:55:11;23.10;1.00
20291;DHT22;10304;51.074;13.754;2023-08-06T12:57:38;23.10;1.00
20291;DHT22;10304;51.074;13.754;2023-08-06T13:00:23;23.10;1.00
20291;DHT22;10304;51.074;13.754;2023-08-06T13:02:50;23.10;1.00
20291;DHT22;10304;51.074;13.754;2023-08-06T13:05:17;23.20;1.00
20291;DHT22;10304;51.074;13.754;2023-08-06T13:07:44;23.10;1.00
20291;DHT22;10304;51.074;13.754;2023-08-06T13:10:11;23.10;1.00
20291;DHT22;10304;51.074;13.754;2023-08-06T13:12:38;23.10;1.00
20291;DHT22;10304;51.074;13.754;2023-08-06T13:15:05;23.10;1.00
20291;DHT22;10304;51.074;13.754;2023-08-06T13:17:32;23.20;1.00
20291;DHT22;10304;51.074;13.754;2023-08-06T13:19:59;23.20;1.00
20291;DHT22;10304;51.074;13.754;2023-08-06T13:22:26;23.20;1.00
20291;DHT22;10304;51.074;13.754;2023-08-06T13:24:53;23.30;1.00
20291;DHT22;10304;51.074;13.754;2023-08-06T13:27:19;23.30;1.00
20291;DHT22;10304;51.074;13.754;2023-08-06T13:29:47;23.40;1.00
20291;DHT22;10304;51.074;13.754;2023-08-06T13:32:14;23.50;1.00
20291;DHT22;10304;51.074;13.754;2023-08-06T13:34:41;23.60;1.00
20291;DHT22;10304;51.074;13.754;2023-08-06T13:37:08;23.70;1.00
20291;DHT22;10304;51.074;13.754;2023-08-06T13:39:35;23.80;1.00
20291;DHT22;10304;51.074;13.754;2023-08-06T13:42:01;23.90;1.00
20291;DHT22;10304;51.074;13.754;2023-08-06T13:44:28;24.00;1.00
20291;DHT22;10304;51.074;13.754;2023-08-06T13:46:56;24.10;1.00
20291;DHT22;10304;51.074;13.754;2023-08-06T13:49:23;24.20;1.00
20291;DHT22;10304;51.074;13.754;2023-08-06T13:52:11;24.20;1.00
20291;DHT22;10304;51.074;13.754;2023-08-06T13:54:48;24.30;1.00
20291;DHT22;10304;51.074;13.754;2023-08-06T13:57:15;24.40;99.90
20291;DHT22;10304;51.074;13.754;2023-08-06T13:59:44;24.50;99.90
20291;DHT22;10304;51.074;13.754;2023-08-06T14:02:11;24.50;99.90
20291;DHT22;10304;51.074;13.754;2023-08-06T14:04:38;24.60;99.90
20291;DHT22;10304;51.074;13.754;2023-08-06T14:07:06;24.60;99.90
20291;DHT22;10304;51.074;13.754;2023-08-06T14:09:34;24.70;99.90
20291;DHT22;10304;51.074;13.754;2023-08-06T14:12:01;24.70;99.90
20291;DHT22;10304;51.074;13.754;2023-08-06T14:14:29;24.70;99.90
20291;DHT22;10304;51.074;13.754;2023-08-06T14:16:57;24.70;99.90
20291;DHT22;10304;51.074;13.754;2023-08-06T14:19:25;24.80;99.90
20291;DHT22;10304;51.074;13.754;2023-08-06T14:21:52;24.80;99.90
20291;DHT22;10304;51.074;13.754;2023-08-06T14:24:19;24.80;99.90
20291;DHT22;10304;51.074;13.754;2023-08-06T14:26:46;24.80;99.90
20291;DHT22;10304;51.074;13.754;2023-08-06T14:29:13;24.80;99.90
20291;DHT22;10304;51.074;13.754;2023-08-06T14:31:41;24.70;99.90
20291;DHT22;10304;51.074;13.754;2023-08-06T14:34:07;24.80;99.90
20291;DHT22;10304;51.074;13.754;2023-08-06T14:36:36;24.80;99.90
20291;DHT22;10304;51.074;13.754;2023-08-06T14:39:03;24.80;99.90
20291;DHT22;10304;51.074;13.754;2023-08-06T14:41:30;24.80;99.90
20291;DHT22;10304;51.074;13.754;2023-08-06T14:43:57;24.80;99.90
20291;DHT22;10304;51.074;13.754;2023-08-06T14:46:23;24.80;99.90
20291;DHT22;10304;51.074;13.754;2023-08-06T14:48:50;24.80;99.90
20291;DHT22;10304;51.074;13.754;2023-08-06T14:51:17;24.70;99.90
20291;DHT22;10304;51.074;13.754;2023-08-06T14:53:47;24.80;99.90
20291;DHT22;10304;51.074;13.754;2023-08-06T14:56:14;24.80;99.90
20291;DHT22;10304;51.074;13.754;2023-08-06T14:58:40;24.80;99.90
20291;DHT22;10304;51.074;13.754;2023-08-06T15:01:08;24.80;99.90
20291;DHT22;10304;51.074;13.754;2023-08-06T15:03:35;24.90;99.90
20291;DHT22;10304;51.074;13.754;2023-08-06T15:06:02;24.90;99.90
20291;DHT22;10304;51.074;13.754;2023-08-06T15:08:28;24.90;99.90
20291;DHT22;10304;51.074;13.754;2023-08-06T15:10:55;24.90;99.90
20291;DHT22;10304;51.074;13.754;2023-08-06T15:13:29;24.90;99.90
20291;DHT22;10304;51.074;13.754;2023-08-06T15:15:56;24.90;99.90
20291;DHT22;10304;51.074;13.754;2023-08-06T15:18:23;24.90;99.90
20291;DHT22;10304;51.074;13.754;2023-08-06T15:20:50;24.90;99.90
20291;DHT22;10304;51.074;13.754;2023-08-06T15:23:16;24.90;99.90
20291;DHT22;10304;51.074;13.754;2023-08-06T15:26:21;24.90;99.90
20291;DHT22;10304;51.074;13.754;2023-08-06T15:29:39;24.80;99.90
20291;DHT22;10304;51.074;13.754;2023-08-06T15:32:07;24.70;99.90
20291;DHT22;10304;51.074;13.754;2023-08-06T15:34:34;24.70;99.90
20291;DHT22;10304;51.074;13.754;2023-08-06T15:37:01;24.60;99.90
20291;DHT22;10304;51.074;13.754;2023-08-06T15:39:29;24.50;99.90
20291;DHT22;10304;51.074;13.754;2023-08-06T15:41:58;24.40;99.90
20291;DHT22;10304;51.074;13.754;2023-08-06T15:44:25;24.40;99.90
20291;DHT22;10304;51.074;13.754;2023-08-06T15:46:52;24.30;1.00
20291;DHT22;10304;51.074;13.754;2023-08-06T15:49:20;24.20;1.00
20291;DHT22;10304;51.074;13.754;2023-08-06T15:51:47;24.20;1.00
20291;DHT22;10304;51.074;13.754;2023-08-06T15:54:14;24.10;1.00
20291;DHT22;10304;51.074;13.754;2023-08-06T15:56:43;24.00;1.00
20291;DHT22;10304;51.074;13.754;2023-08-06T15:59:36;24.00;1.00
20291;DHT22;10304;51.074;13.754;2023-08-06T16:02:10;23.90;1.00
20291;DHT22;10304;51.074;13.754;2023-08-06T16:19:20;23.40;99.90
20291;DHT22;10304;51.074;13.754;2023-08-06T16:21:52;23.30;99.90
20291;DHT22;10304;51.074;13.754;2023-08-06T16:24:19;23.20;1.00
20291;DHT22;10304;51.074;13.754;2023-08-06T16:26:46;23.10;1.00
20291;DHT22;10304;51.074;13.754;2023-08-06T16:29:13;23.00;1.00
20291;DHT22;10304;51.074;13.754;2023-08-06T16:31:40;22.90;99.90
20291;DHT22;10304;51.074;13.754;2023-08-06T16:34:07;22.80;99.90
20291;DHT22;10304;51.074;13.754;2023-08-06T16:36:34;22.80;1.00